sensor_id;sensor_type;location;lat;lon;timestamp;P1;durP1;ratioP1;P2;durP2;ratioP2
42144;SDS011;27813;43.516;11.890;2022-12-24T00:04:48;78.65;;;25.60;;
42144;SDS011;27813;43.516;11.890;2022-12-24T00:08:58;78.07;;;26.55;;
42144;SDS011;27813;43.516;11.890;2022-12-24T00:13:02;77.18;;;28.63;;
42144;SDS011;27813;43.516;11.890;2022-12-24T00:17:06;76.40;;;28.30;;
42144;SDS011;27813;43.516;11.890;2022-12-24T00:21:10;120.60;;;31.10;;
42144;SDS011;27813;43.516;11.890;2022-12-24T00:25:14;70.82;;;28.75;;
42144;SDS011;27813;43.516;11.890;2022-12-24T00:29:21;103.30;;;31.40;;
42144;SDS011;27813;43.516;11.890;2022-12-24T05:37:17;46.10;;;17.23;;
42144;SDS011;27813;43.516;11.890;2022-12-24T05:41:21;41.88;;;17.25;;
42144;SDS011;27813;43.516;11.890;2022-12-24T05:45:24;46.28;;;19.63;;
42144;SDS011;27813;43.516;11.890;2022-12-24T05:49:28;54.87;;;20.63;;
42144;SDS011;27813;43.516;11.890;2022-12-24T05:53:33;46.33;;;18.63;;
42144;SDS011;27813;43.516;11.890;2022-12-24T06:01:42;51.20;;;19.10;;
42144;SDS011;27813;43.516;11.890;2022-12-24T06:05:56;52.47;;;18.88;;
42144;SDS011;27813;43.516;11.890;2022-12-24T06:10:01;42.08;;;19.00;;
42144;SDS011;27813;43.516;11.890;2022-12-24T06:14:05;45.50;;;19.27;;
42144;SDS011;27813;43.516;11.890;2022-12-24T06:18:08;45.87;;;16.37;;
42144;SDS011;27813;43.516;11.890;2022-12-24T06:22:12;38.50;;;15.57;;
42144;SDS011;27813;43.516;11.890;2022-12-24T06:26:17;45.65;;;15.85;;
42144;SDS011;27813;43.516;11.890;2022-12-24T06:30:23;38.22;;;15.90;;
42144;SDS011;27813;43.516;11.890;2022-12-24T06:34:28;41.70;;;16.08;;
42144;SDS011;27813;43.516;11.890;2022-12-24T06:38:32;40.00;;;16.07;;
42144;SDS011;27813;43.516;11.890;2022-12-24T06:42:35;58.60;;;19.10;;
42144;SDS011;27813;43.516;11.890;2022-12-24T06:46:39;56.83;;;17.13;;
42144;SDS011;27813;43.516;11.890;2022-12-24T06:50:43;47.17;;;17.20;;
42144;SDS011;27813;43.516;11.890;2022-12-24T06:54:47;45.30;;;16.33;;
42144;SDS011;27813;43.516;11.890;2022-12-24T06:58:50;42.45;;;14.93;;
42144;SDS011;27813;43.516;11.890;2022-12-24T07:02:54;38.47;;;14.48;;
42144;SDS011;27813;43.516;11.890;2022-12-24T07:06:58;47.20;;;15.40;;
42144;SDS011;27813;43.516;11.890;2022-12-24T07:11:02;44.97;;;15.83;;
42144;SDS011;27813;43.516;11.890;2022-12-24T07:15:07;53.60;;;18.67;;
42144;SDS011;27813;43.516;11.890;2022-12-24T07:19:12;44.00;;;17.30;;
42144;SDS011;27813;43.516;11.890;2022-12-24T07:23:16;47.35;;;18.42;;
42144;SDS011;27813;43.516;11.890;2022-12-24T07:27:19;43.40;;;19.43;;
42144;SDS011;27813;43.516;11.890;2022-12-24T07:31:23;45.27;;;21.10;;
42144;SDS011;27813;43.516;11.890;2022-12-24T07:35:27;55.65;;;21.08;;
42144;SDS011;27813;43.516;11.890;2022-12-24T07:39:30;53.27;;;21.00;;
42144;SDS011;27813;43.516;11.890;2022-12-24T07:43:35;62.28;;;27.27;;
42144;SDS011;27813;43.516;11.890;2022-12-24T07:47:38;59.97;;;24.10;;
42144;SDS011;27813;43.516;11.890;2022-12-24T07:51:42;73.80;;;30.83;;
42144;SDS011;27813;43.516;11.890;2022-12-24T07:55:46;66.47;;;23.87;;
42144;SDS011;27813;43.516;11.890;2022-12-24T07:59:49;52.33;;;21.93;;
42144;SDS011;27813;43.516;11.890;2022-12-24T08:03:53;59.97;;;20.37;;
42144;SDS011;27813;43.516;11.890;2022-12-24T08:07:57;54.95;;;21.70;;
42144;SDS011;27813;43.516;11.890;2022-12-24T08:12:01;60.13;;;20.40;;
42144;SDS011;27813;43.516;11.890;2022-12-24T08:16:06;66.95;;;23.38;;
42144;SDS011;27813;43.516;11.890;2022-12-24T08:20:10;55.97;;;21.95;;
42144;SDS011;27813;43.516;11.890;2022-12-24T08:24:14;56.50;;;22.10;;
42144;SDS011;27813;43.516;11.890;2022-12-24T08:28:18;55.65;;;21.15;;
42144;SDS011;27813;43.516;11.890;2022-12-24T08:32:22;53.17;;;22.10;;
42144;SDS011;27813;43.516;11.890;2022-12-24T08:36:26;67.10;;;22.77;;
42144;SDS011;27813;43.516;11.890;2022-12-24T08:40:31;58.50;;;25.52;;
42144;SDS011;27813;43.516;11.890;2022-12-24T08:44:35;49.13;;;20.60;;
42144;SDS011;27813;43.516;11.890;2022-12-24T08:52:43;44.30;;;17.73;;
42144;SDS011;27813;43.516;11.890;2022-12-24T08:56:47;36.85;;;17.55;;
42144;SDS011;27813;43.516;11.890;2022-12-24T09:00:51;34.45;;;19.17;;
42144;SDS011;27813;43.516;11.890;2022-12-24T09:04:54;50.90;;;19.10;;
42144;SDS011;27813;43.516;11.890;2022-12-24T09:08:58;50.97;;;19.10;;
42144;SDS011;27813;43.516;11.890;2022-12-24T09:13:02;45.83;;;19.67;;
42144;SDS011;27813;43.516;11.890;2022-12-24T09:17:06;44.45;;;19.00;;
42144;SDS011;27813;43.516;11.890;2022-12-24T09:21:10;59.92;;;34.10;;
42144;SDS011;27813;43.516;11.890;2022-12-24T09:25:19;58.40;;;25.45;;
42144;SDS011;27813;43.516;11.890;2022-12-24T09:29:24;60.25;;;25.70;;
42144;SDS011;27813;43.516;11.890;2022-12-24T09:33:29;44.65;;;21.20;;
42144;SDS011;27813;43.516;11.890;2022-12-24T09:37:34;49.15;;;20.88;;
42144;SDS011;27813;43.516;11.890;2022-12-24T09:46:24;39.20;;;19.55;;
42144;SDS011;27813;43.516;11.890;2022-12-24T09:50:52;38.67;;;18.85;;
42144;SDS011;27813;43.516;11.890;2022-12-24T09:59:17;45.33;;;20.52;;
42144;SDS011;27813;43.516;11.890;2022-12-24T10:03:30;38.50;;;20.80;;
42144;SDS011;27813;43.516;11.890;2022-12-24T10:21:44;34.30;;;18.02;;
42144;SDS011;27813;43.516;11.890;2022-12-24T10:31:00;50.00;;;24.80;;
42144;SDS011;27813;43.516;11.890;2022-12-24T10:35:19;37.42;;;19.50;;
42144;SDS011;27813;43.516;11.890;2022-12-24T10:39:33;34.45;;;16.77;;
42144;SDS011;27813;43.516;11.890;2022-12-24T10:43:45;39.72;;;19.88;;
42144;SDS011;27813;43.516;11.890;2022-12-24T10:48:03;43.50;;;19.80;;
42144;SDS011;27813;43.516;11.890;2022-12-24T10:52:14;36.45;;;20.48;;
42144;SDS011;27813;43.516;11.890;2022-12-24T10:56:22;33.67;;;18.23;;
42144;SDS011;27813;43.516;11.890;2022-12-24T11:00:27;33.72;;;17.83;;
42144;SDS011;27813;43.516;11.890;2022-12-24T11:04:44;36.13;;;17.95;;
42144;SDS011;27813;43.516;11.890;2022-12-24T11:08:51;49.63;;;24.10;;
42144;SDS011;27813;43.516;11.890;2022-12-24T11:12:55;36.22;;;19.30;;
42144;SDS011;27813;43.516;11.890;2022-12-24T11:17:25;27.65;;;16.73;;
42144;SDS011;27813;43.516;11.890;2022-12-24T11:21:34;137.63;;;54.53;;
42144;SDS011;27813;43.516;11.890;2022-12-24T11:25:51;37.13;;;20.08;;
42144;SDS011;27813;43.516;11.890;2022-12-24T11:34:25;32.83;;;18.73;;
42144;SDS011;27813;43.516;11.890;2022-12-24T11:38:33;31.88;;;15.63;;
42144;SDS011;27813;43.516;11.890;2022-12-24T11:42:41;38.88;;;16.75;;
42144;SDS011;27813;43.516;11.890;2022-12-24T11:46:57;36.55;;;19.92;;
42144;SDS011;27813;43.516;11.890;2022-12-24T11:51:03;33.70;;;17.30;;
42144;SDS011;27813;43.516;11.890;2022-12-24T11:55:14;71.32;;;43.25;;
42144;SDS011;27813;43.516;11.890;2022-12-24T11:59:52;29.63;;;16.90;;
42144;SDS011;27813;43.516;11.890;2022-12-24T12:04:16;27.83;;;17.30;;
42144;SDS011;27813;43.516;11.890;2022-12-24T12:08:27;32.42;;;18.25;;
42144;SDS011;27813;43.516;11.890;2022-12-24T12:12:34;26.23;;;14.77;;
42144;SDS011;27813;43.516;11.890;2022-12-24T12:16:48;28.75;;;14.30;;
42144;SDS011;27813;43.516;11.890;2022-12-24T12:21:17;26.63;;;15.55;;
42144;SDS011;27813;43.516;11.890;2022-12-24T12:29:40;26.42;;;16.48;;
42144;SDS011;27813;43.516;11.890;2022-12-24T12:33:56;28.33;;;15.88;;
42144;SDS011;27813;43.516;11.890;2022-12-24T12:38:21;24.30;;;16.63;;
42144;SDS011;27813;43.516;11.890;2022-12-24T12:42:32;32.17;;;16.33;;
42144;SDS011;27813;43.516;11.890;2022-12-24T12:51:35;27.58;;;17.17;;
42144;SDS011;27813;43.516;11.890;2022-12-24T12:56:05;33.78;;;20.33;;
42144;SDS011;27813;43.516;11.890;2022-12-24T13:00:20;30.00;;;17.75;;
42144;SDS011;27813;43.516;11.890;2022-12-24T13:09:06;31.27;;;18.85;;
42144;SDS011;27813;43.516;11.890;2022-12-24T13:22:56;30.35;;;19.05;;
42144;SDS011;27813;43.516;11.890;2022-12-24T13:31:21;24.77;;;16.08;;
42144;SDS011;27813;43.516;11.890;2022-12-24T13:35:28;23.05;;;14.93;;
42144;SDS011;27813;43.516;11.890;2022-12-24T13:52:31;27.17;;;15.40;;
42144;SDS011;27813;43.516;11.890;2022-12-24T13:56:44;25.38;;;15.32;;
42144;SDS011;27813;43.516;11.890;2022-12-24T14:05:02;25.55;;;15.43;;
42144;SDS011;27813;43.516;11.890;2022-12-24T14:17:41;16.38;;;11.25;;
42144;SDS011;27813;43.516;11.890;2022-12-24T14:21:57;22.65;;;12.43;;
42144;SDS011;27813;43.516;11.890;2022-12-24T14:26:08;18.63;;;12.20;;
42144;SDS011;27813;43.516;11.890;2022-12-24T14:30:18;20.25;;;12.27;;
42144;SDS011;27813;43.516;11.890;2022-12-24T14:34:27;21.52;;;11.95;;
42144;SDS011;27813;43.516;11.890;2022-12-24T14:38:32;22.40;;;12.85;;
42144;SDS011;27813;43.516;11.890;2022-12-24T14:47:37;22.15;;;13.15;;
42144;SDS011;27813;43.516;11.890;2022-12-24T14:56:29;16.05;;;11.80;;
42144;SDS011;27813;43.516;11.890;2022-12-24T15:04:41;20.27;;;11.15;;
42144;SDS011;27813;43.516;11.890;2022-12-24T15:12:50;21.15;;;13.25;;
42144;SDS011;27813;43.516;11.890;2022-12-24T15:17:05;21.95;;;12.38;;
42144;SDS011;27813;43.516;11.890;2022-12-24T15:21:15;33.23;;;19.00;;
42144;SDS011;27813;43.516;11.890;2022-12-24T15:25:27;43.53;;;23.75;;
42144;SDS011;27813;43.516;11.890;2022-12-24T15:29:37;36.42;;;22.58;;
42144;SDS011;27813;43.516;11.890;2022-12-24T15:33:45;42.53;;;22.35;;
42144;SDS011;27813;43.516;11.890;2022-12-24T15:37:50;32.38;;;18.20;;
42144;SDS011;27813;43.516;11.890;2022-12-24T15:41:54;25.48;;;16.33;;
42144;SDS011;27813;43.516;11.890;2022-12-24T15:46:17;28.42;;;16.98;;
42144;SDS011;27813;43.516;11.890;2022-12-24T15:50:30;30.42;;;19.40;;
42144;SDS011;27813;43.516;11.890;2022-12-24T15:54:42;28.13;;;18.17;;
42144;SDS011;27813;43.516;11.890;2022-12-24T15:58:47;30.75;;;16.15;;
42144;SDS011;27813;43.516;11.890;2022-12-24T16:02:51;26.77;;;17.02;;
42144;SDS011;27813;43.516;11.890;2022-12-24T16:06:59;27.75;;;15.13;;
42144;SDS011;27813;43.516;11.890;2022-12-24T16:11:12;24.33;;;12.95;;
42144;SDS011;27813;43.516;11.890;2022-12-24T16:15:22;30.92;;;16.98;;
42144;SDS011;27813;43.516;11.890;2022-12-24T16:19:28;21.65;;;15.00;;
42144;SDS011;27813;43.516;11.890;2022-12-24T16:23:46;40.55;;;22.70;;
42144;SDS011;27813;43.516;11.890;2022-12-24T16:27:52;23.20;;;13.50;;
42144;SDS011;27813;43.516;11.890;2022-12-24T16:32:02;20.05;;;13.15;;
42144;SDS011;27813;43.516;11.890;2022-12-24T16:36:06;32.50;;;18.27;;
42144;SDS011;27813;43.516;11.890;2022-12-24T16:40:12;22.90;;;14.73;;
42144;SDS011;27813;43.516;11.890;2022-12-24T16:44:22;26.77;;;13.85;;
42144;SDS011;27813;43.516;11.890;2022-12-24T16:48:26;24.85;;;14.70;;
42144;SDS011;27813;43.516;11.890;2022-12-24T16:56:41;36.45;;;19.95;;
42144;SDS011;27813;43.516;11.890;2022-12-24T17:00:51;33.75;;;21.67;;
42144;SDS011;27813;43.516;11.890;2022-12-24T17:04:57;24.45;;;16.67;;
42144;SDS011;27813;43.516;11.890;2022-12-24T17:09:06;26.88;;;16.80;;
42144;SDS011;27813;43.516;11.890;2022-12-24T17:13:11;32.38;;;18.23;;
42144;SDS011;27813;43.516;11.890;2022-12-24T17:17:33;28.02;;;19.02;;
42144;SDS011;27813;43.516;11.890;2022-12-24T17:21:37;30.48;;;20.80;;
42144;SDS011;27813;43.516;11.890;2022-12-24T17:25:40;28.85;;;19.88;;
42144;SDS011;27813;43.516;11.890;2022-12-24T17:29:45;29.17;;;19.48;;
42144;SDS011;27813;43.516;11.890;2022-12-24T17:33:49;28.98;;;18.38;;
42144;SDS011;27813;43.516;11.890;2022-12-24T17:37:54;32.28;;;21.20;;
42144;SDS011;27813;43.516;11.890;2022-12-24T17:41:58;43.55;;;24.58;;
42144;SDS011;27813;43.516;11.890;2022-12-24T17:46:11;33.38;;;24.38;;
42144;SDS011;27813;43.516;11.890;2022-12-24T17:50:17;38.42;;;25.17;;
42144;SDS011;27813;43.516;11.890;2022-12-24T17:54:23;28.85;;;20.27;;
42144;SDS011;27813;43.516;11.890;2022-12-24T17:58:33;30.80;;;19.70;;
42144;SDS011;27813;43.516;11.890;2022-12-24T18:02:41;60.00;;;40.75;;
42144;SDS011;27813;43.516;11.890;2022-12-24T18:06:47;43.25;;;21.80;;
42144;SDS011;27813;43.516;11.890;2022-12-24T18:10:53;33.22;;;23.38;;
42144;SDS011;27813;43.516;11.890;2022-12-24T18:14:59;34.30;;;22.73;;
42144;SDS011;27813;43.516;11.890;2022-12-24T18:19:03;36.60;;;20.48;;
42144;SDS011;27813;43.516;11.890;2022-12-24T18:23:12;43.17;;;24.20;;
42144;SDS011;27813;43.516;11.890;2022-12-24T18:27:16;68.70;;;33.65;;
42144;SDS011;27813;43.516;11.890;2022-12-24T18:31:20;109.07;;;47.75;;
42144;SDS011;27813;43.516;11.890;2022-12-24T18:35:26;64.50;;;33.75;;
42144;SDS011;27813;43.516;11.890;2022-12-24T18:39:32;50.85;;;28.73;;
42144;SDS011;27813;43.516;11.890;2022-12-24T18:43:56;51.63;;;27.50;;
42144;SDS011;27813;43.516;11.890;2022-12-24T18:48:02;65.22;;;34.53;;
42144;SDS011;27813;43.516;11.890;2022-12-24T18:52:06;65.82;;;33.60;;
42144;SDS011;27813;43.516;11.890;2022-12-24T18:56:21;50.47;;;25.70;;
42144;SDS011;27813;43.516;11.890;2022-12-24T19:00:26;64.75;;;36.78;;
42144;SDS011;27813;43.516;11.890;2022-12-24T19:04:31;56.15;;;32.65;;
42144;SDS011;27813;43.516;11.890;2022-12-24T19:08:36;56.65;;;34.38;;
42144;SDS011;27813;43.516;11.890;2022-12-24T19:13:00;72.50;;;46.00;;
42144;SDS011;27813;43.516;11.890;2022-12-24T19:17:04;61.80;;;37.45;;
42144;SDS011;27813;43.516;11.890;2022-12-24T19:21:09;51.65;;;33.33;;
42144;SDS011;27813;43.516;11.890;2022-12-24T19:25:14;62.10;;;39.95;;
42144;SDS011;27813;43.516;11.890;2022-12-24T19:29:18;69.27;;;47.33;;
42144;SDS011;27813;43.516;11.890;2022-12-24T19:33:22;108.88;;;66.88;;
42144;SDS011;27813;43.516;11.890;2022-12-24T19:37:25;53.28;;;33.55;;
42144;SDS011;27813;43.516;11.890;2022-12-24T19:41:29;57.13;;;30.10;;
42144;SDS011;27813;43.516;11.890;2022-12-24T19:45:33;54.45;;;30.83;;
42144;SDS011;27813;43.516;11.890;2022-12-24T19:49:37;90.50;;;50.00;;
42144;SDS011;27813;43.516;11.890;2022-12-24T19:53:41;98.00;;;53.92;;
42144;SDS011;27813;43.516;11.890;2022-12-24T19:57:45;107.82;;;58.97;;
42144;SDS011;27813;43.516;11.890;2022-12-24T20:01:48;84.57;;;48.92;;
42144;SDS011;27813;43.516;11.890;2022-12-24T20:05:54;67.88;;;40.47;;
42144;SDS011;27813;43.516;11.890;2022-12-24T20:09:58;57.72;;;35.28;;
42144;SDS011;27813;43.516;11.890;2022-12-24T20:14:03;79.93;;;42.43;;
42144;SDS011;27813;43.516;11.890;2022-12-24T20:18:09;97.65;;;56.47;;
42144;SDS011;27813;43.516;11.890;2022-12-24T20:22:16;58.58;;;34.80;;
42144;SDS011;27813;43.516;11.890;2022-12-24T20:26:20;85.35;;;49.40;;
42144;SDS011;27813;43.516;11.890;2022-12-24T20:30:26;227.25;;;103.72;;
42144;SDS011;27813;43.516;11.890;2022-12-24T20:34:34;127.32;;;64.32;;
42144;SDS011;27813;43.516;11.890;2022-12-24T20:38:39;82.00;;;48.53;;
42144;SDS011;27813;43.516;11.890;2022-12-24T20:42:43;80.03;;;48.28;;
42144;SDS011;27813;43.516;11.890;2022-12-24T20:46:47;65.55;;;38.05;;
42144;SDS011;27813;43.516;11.890;2022-12-24T20:50:51;82.55;;;45.10;;
42144;SDS011;27813;43.516;11.890;2022-12-24T20:54:55;80.53;;;48.80;;
42144;SDS011;27813;43.516;11.890;2022-12-24T20:59:01;69.32;;;41.92;;
42144;SDS011;27813;43.516;11.890;2022-12-24T21:03:07;57.55;;;33.88;;
42144;SDS011;27813;43.516;11.890;2022-12-24T21:07:15;51.22;;;32.38;;
42144;SDS011;27813;43.516;11.890;2022-12-24T21:11:20;54.13;;;32.15;;
42144;SDS011;27813;43.516;11.890;2022-12-24T21:15:43;148.60;;;71.05;;
42144;SDS011;27813;43.516;11.890;2022-12-24T21:19:49;172.65;;;73.05;;
42144;SDS011;27813;43.516;11.890;2022-12-24T21:23:53;73.70;;;45.97;;
42144;SDS011;27813;43.516;11.890;2022-12-24T21:27:57;318.02;;;119.05;;
42144;SDS011;27813;43.516;11.890;2022-12-24T21:32:01;119.03;;;58.22;;
42144;SDS011;27813;43.516;11.890;2022-12-24T21:36:07;83.57;;;43.47;;
42144;SDS011;27813;43.516;11.890;2022-12-24T21:40:13;74.25;;;40.42;;
42144;SDS011;27813;43.516;11.890;2022-12-24T21:44:17;182.45;;;76.13;;
42144;SDS011;27813;43.516;11.890;2022-12-24T21:48:22;107.95;;;50.22;;
42144;SDS011;27813;43.516;11.890;2022-12-24T21:52:47;76.70;;;45.30;;
42144;SDS011;27813;43.516;11.890;2022-12-24T21:57:11;75.88;;;44.45;;
42144;SDS011;27813;43.516;11.890;2022-12-24T22:01:36;109.82;;;52.63;;
42144;SDS011;27813;43.516;11.890;2022-12-24T22:05:41;64.38;;;36.33;;
42144;SDS011;27813;43.516;11.890;2022-12-24T22:09:45;75.38;;;40.80;;
42144;SDS011;27813;43.516;11.890;2022-12-24T22:14:08;66.90;;;36.97;;
42144;SDS011;27813;43.516;11.890;2022-12-24T22:18:12;235.80;;;69.85;;
42144;SDS011;27813;43.516;11.890;2022-12-24T22:22:19;124.82;;;59.03;;
42144;SDS011;27813;43.516;11.890;2022-12-24T22:26:24;77.10;;;37.17;;
42144;SDS011;27813;43.516;11.890;2022-12-24T22:30:28;69.35;;;39.03;;
42144;SDS011;27813;43.516;11.890;2022-12-24T22:34:33;73.05;;;42.15;;
42144;SDS011;27813;43.516;11.890;2022-12-24T22:38:42;61.92;;;37.42;;
42144;SDS011;27813;43.516;11.890;2022-12-24T22:42:48;73.00;;;42.30;;
42144;SDS011;27813;43.516;11.890;2022-12-24T22:46:52;56.63;;;33.58;;
42144;SDS011;27813;43.516;11.890;2022-12-24T22:50:56;59.17;;;33.05;;
42144;SDS011;27813;43.516;11.890;2022-12-24T22:55:01;62.72;;;34.80;;
42144;SDS011;27813;43.516;11.890;2022-12-24T22:59:06;58.10;;;29.75;;
42144;SDS011;27813;43.516;11.890;2022-12-24T23:03:10;50.00;;;28.48;;
42144;SDS011;27813;43.516;11.890;2022-12-24T23:07:15;48.55;;;27.65;;
42144;SDS011;27813;43.516;11.890;2022-12-24T23:11:19;53.83;;;27.00;;
42144;SDS011;27813;43.516;11.890;2022-12-24T23:15:23;61.95;;;33.03;;
42144;SDS011;27813;43.516;11.890;2022-12-24T23:19:26;42.80;;;25.17;;
42144;SDS011;27813;43.516;11.890;2022-12-24T23:23:32;48.15;;;26.05;;
42144;SDS011;27813;43.516;11.890;2022-12-24T23:27:39;44.28;;;26.15;;
42144;SDS011;27813;43.516;11.890;2022-12-24T23:31:43;40.33;;;19.52;;
42144;SDS011;27813;43.516;11.890;2022-12-24T23:35:47;41.30;;;20.65;;
42144;SDS011;27813;43.516;11.890;2022-12-24T23:39:51;41.30;;;19.67;;
42144;SDS011;27813;43.516;11.890;2022-12-24T23:43:55;51.17;;;30.15;;
42144;SDS011;27813;43.516;11.890;2022-12-24T23:47:59;38.67;;;20.63;;
42144;SDS011;27813;43.516;11.890;2022-12-24T23:52:03;36.88;;;21.85;;
42144;SDS011;27813;43.516;11.890;2022-12-24T23:56:07;34.33;;;20.40;;
